Time;durP1;ratioP1;P1;durP2;ratioP2;P2;SDS_P1;SDS_P2;PMS_P1;PMS_P2;Temp;Humidity;BMP_temperature;BMP_pressure;BME280_temperature;BME280_humidity;BME280_pressure;Samples;Min_cycle;Max_cycle;Signal;HPM_P1;HPM_P2
2022/02/14 00:01:07;;;;;;;2.92;2.20;;;21.40;53.20;;;;;;4992017;28;87898;-83
2022/02/14 00:03:33;;;;;;;3.38;2.33;;;21.40;53.30;;;;;;4992436;28;87356;-82
2022/02/14 00:05:59;;;;;;;2.58;2.17;;;21.40;53.40;;;;;;4991833;28;87850;-80
2022/02/14 00:08:25;;;;;;;4.53;2.45;;;21.40;53.40;;;;;;4991391;28;88940;-82
2022/02/14 00:10:50;;;;;;;4.05;2.40;;;21.40;53.10;;;;;;4990822;28;89012;-82
2022/02/14 00:13:16;;;;;;;2.65;1.83;;;21.40;53.10;;;;;;4990409;28;90523;-83
2022/02/14 00:15:43;;;;;;;3.03;2.03;;;21.30;52.90;;;;;;4990378;28;87225;-82
2022/02/14 00:18:09;;;;;;;3.80;2.22;;;21.30;53.00;;;;;;4989570;28;88525;-81
2022/02/14 00:20:34;;;;;;;3.17;2.28;;;21.30;53.00;;;;;;4991550;28;87875;-82
2022/02/14 00:23:03;;;;;;;2.58;2.10;;;21.30;52.90;;;;;;4992308;28;87687;-82
2022/02/14 00:25:28;;;;;;;2.83;2.20;;;21.40;53.00;;;;;;4990124;28;87242;-81
2022/02/14 00:27:54;;;;;;;3.95;2.30;;;21.30;53.10;;;;;;4990798;28;87177;-81
2022/02/14 00:30:20;;;;;;;4.13;2.22;;;21.40;52.90;;;;;;4991018;28;87006;-82
2022/02/14 00:32:53;;;;;;;4.78;2.60;;;21.30;52.60;;;;;;4990337;28;87370;-84
2022/02/14 00:35:19;;;;;;;2.45;1.95;;;21.30;52.60;;;;;;4992030;28;88352;-81
2022/02/14 00:37:44;;;;;;;4.00;2.45;;;21.30;52.70;;;;;;4993981;28;87890;-82
2022/02/14 00:40:10;;;;;;;3.47;2.03;;;21.30;52.70;;;;;;4994340;28;87943;-82
2022/02/14 00:42:36;;;;;;;2.65;2.20;;;21.30;52.60;;;;;;4993287;28;87471;-82
2022/02/14 00:45:02;;;;;;;2.30;2.00;;;21.30;52.50;;;;;;4992512;28;87445;-80
2022/02/14 00:47:28;;;;;;;2.63;2.00;;;21.30;52.60;;;;;;4992533;28;88029;-84
2022/02/14 00:49:54;;;;;;;3.20;2.08;;;21.30;52.40;;;;;;4992502;28;88741;-79
2022/02/14 00:52:19;;;;;;;3.58;2.38;;;21.20;52.50;;;;;;4991499;28;90341;-81
2022/02/14 00:54:45;;;;;;;3.25;1.90;;;21.20;52.40;;;;;;4992259;28;87536;-81
2022/02/14 00:57:10;;;;;;;2.88;2.20;;;21.20;52.50;;;;;;4993699;28;87716;-80
2022/02/14 00:59:36;;;;;;;2.33;2.10;;;21.30;52.50;;;;;;4991802;28;88944;-81
2022/02/14 01:02:03;;;;;;;3.10;2.05;;;21.20;52.50;;;;;;4992614;28;87580;-82
2022/02/14 01:04:28;;;;;;;2.97;2.20;;;21.20;52.60;;;;;;4993061;28;87528;-78
2022/02/14 01:06:54;;;;;;;2.97;2.20;;;21.30;52.60;;;;;;4991619;28;87915;-78
2022/02/14 01:09:20;;;;;;;3.83;1.85;;;21.20;52.40;;;;;;4992695;28;87515;-83
2022/02/14 01:11:46;;;;;;;2.88;1.88;;;21.20;52.30;;;;;;4992624;28;87751;-81
2022/02/14 01:14:12;;;;;;;2.83;2.00;;;21.20;52.40;;;;;;4993768;28;87549;-83
2022/02/14 01:16:37;;;;;;;2.78;2.20;;;21.20;52.20;;;;;;4992846;28;86353;-84
2022/02/14 01:19:12;;;;;;;4.20;2.15;;;21.20;52.20;;;;;;4992331;28;88737;-81
2022/02/14 01:21:38;;;;;;;3.00;2.10;;;21.20;52.20;;;;;;4993330;28;87849;-80
2022/02/14 01:24:04;;;;;;;2.05;1.75;;;21.20;52.20;;;;;;4992206;28;88024;-80
2022/02/14 01:26:30;;;;;;;1.70;1.52;;;21.20;52.20;;;;;;4992091;28;87380;-80
2022/02/14 01:28:56;;;;;;;2.97;2.30;;;21.20;52.20;;;;;;4992996;28;87925;-82
2022/02/14 01:31:22;;;;;;;2.40;2.00;;;21.20;52.30;;;;;;4991508;28;86942;-83
2022/02/14 01:33:48;;;;;;;2.95;2.22;;;21.20;52.20;;;;;;4991706;28;87230;-78
2022/02/14 01:36:13;;;;;;;2.30;2.10;;;21.20;52.80;;;;;;4992416;28;87941;-78
2022/02/14 01:38:39;;;;;;;3.38;2.10;;;21.10;52.10;;;;;;4992260;28;87798;-79
2022/02/14 01:41:05;;;;;;;2.83;1.88;;;21.20;52.10;;;;;;4991471;28;87555;-79
2022/02/14 01:43:30;;;;;;;3.13;2.08;;;21.10;52.00;;;;;;4991231;28;87675;-79
2022/02/14 01:45:56;;;;;;;2.92;1.90;;;21.10;51.90;;;;;;4991778;28;88016;-80
2022/02/14 01:48:22;;;;;;;2.03;1.70;;;21.10;51.90;;;;;;4991214;28;88517;-79
2022/02/14 01:50:48;;;;;;;2.60;2.00;;;21.10;51.90;;;;;;4992361;28;88065;-81
2022/02/14 01:53:15;;;;;;;2.72;2.17;;;21.10;51.90;;;;;;4992387;28;87439;-80
2022/02/14 01:55:41;;;;;;;2.45;1.98;;;21.10;51.90;;;;;;4991298;28;87281;-80
2022/02/14 01:58:07;;;;;;;2.78;2.30;;;21.10;52.00;;;;;;4991324;28;87563;-78
2022/02/14 02:00:33;;;;;;;2.30;1.95;;;21.10;51.90;;;;;;4992303;28;89608;-79
2022/02/14 02:03:11;;;;;;;;;;;;;;;;;;;;;
2022/02/14 02:05:38;;;;;;;2.92;2.15;;;21.10;51.70;;;;;;4991848;28;89645;-80
2022/02/14 02:08:04;;;;;;;2.50;1.90;;;21.10;51.80;;;;;;4991740;28;88485;-81
2022/02/14 02:10:29;;;;;;;2.72;1.98;;;21.10;51.70;;;;;;4994903;28;87710;-82
2022/02/14 02:12:56;;;;;;;2.55;1.88;;;21.10;51.80;;;;;;4994180;28;89132;-80
2022/02/14 02:15:23;;;;;;;4.05;1.90;;;21.10;51.70;;;;;;4993709;28;87590;-82
2022/02/14 02:17:49;;;;;;;3.67;2.13;;;21.10;51.70;;;;;;4993129;28;89605;-81
2022/02/14 02:20:16;;;;;;;2.15;1.95;;;21.10;51.80;;;;;;4994782;28;88381;-82
2022/02/14 02:22:44;;;;;;;3.00;2.13;;;21.00;51.80;;;;;;4995458;28;86961;-81
2022/02/14 02:25:11;;;;;;;3.03;2.00;;;21.10;51.80;;;;;;4994251;28;87348;-82
2022/02/14 02:27:37;;;;;;;2.08;1.70;;;21.10;51.70;;;;;;4994757;28;87460;-82
2022/02/14 02:30:05;;;;;;;3.42;2.03;;;21.00;51.60;;;;;;4995537;28;87810;-83
2022/02/14 02:32:32;;;;;;;2.78;2.08;;;21.10;51.60;;;;;;4994463;28;87776;-83
2022/02/14 02:34:58;;;;;;;2.78;1.90;;;21.10;51.50;;;;;;4992755;28;87416;-83
2022/02/14 02:37:24;;;;;;;2.53;1.90;;;21.00;51.70;;;;;;4993601;28;89022;-81
2022/02/14 02:39:49;;;;;;;3.47;1.80;;;21.00;51.50;;;;;;4992245;28;87492;-83
2022/02/14 02:42:22;;;;;;;3.28;2.30;;;21.00;51.60;;;;;;4991761;28;87503;-80
2022/02/14 02:44:50;;;;;;;2.83;2.20;;;21.00;51.70;;;;;;4992131;28;87534;-81
2022/02/14 02:47:17;;;;;;;2.22;1.75;;;21.00;51.60;;;;;;4991673;28;90492;-82
2022/02/14 02:49:43;;;;;;;3.00;2.00;;;21.00;51.50;;;;;;4991853;28;91989;-83
2022/02/14 02:52:11;;;;;;;1.67;1.58;;;21.00;51.50;;;;;;4993579;28;87561;-82
2022/02/14 02:54:37;;;;;;;3.40;1.73;;;21.00;51.60;;;;;;4993735;28;86788;-82
2022/02/14 02:57:04;;;;;;;2.67;2.42;;;21.00;51.40;;;;;;4992627;28;87762;-81
2022/02/14 02:59:33;;;;;;;2.15;1.80;;;21.00;51.50;;;;;;4993051;28;87645;-80
2022/02/14 03:02:00;;;;;;;2.47;1.90;;;21.00;51.60;;;;;;4992628;28;88002;-79
2022/02/14 03:04:26;;;;;;;1.70;1.60;;;21.00;51.50;;;;;;5007590;28;88617;-79
2022/02/14 03:06:51;;;;;;;3.35;1.90;;;21.00;51.10;;;;;;4992916;28;87492;-78
2022/02/14 03:09:17;;;;;;;2.75;1.90;;;21.00;51.10;;;;;;4992609;28;87350;-78
2022/02/14 03:11:44;;;;;;;2.10;1.80;;;21.00;51.10;;;;;;4991817;28;87656;-82
2022/02/14 03:14:10;;;;;;;2.00;1.80;;;21.00;51.10;;;;;;4992616;28;86888;-81
2022/02/14 03:16:36;;;;;;;2.67;1.92;;;21.00;51.10;;;;;;4992240;28;87747;-82
2022/02/14 03:19:03;;;;;;;2.40;1.70;;;20.90;51.10;;;;;;4992291;28;87628;-80
2022/02/14 03:21:29;;;;;;;2.55;1.63;;;21.00;51.10;;;;;;4992221;28;88000;-80
2022/02/14 03:24:04;;;;;;;2.65;1.90;;;20.90;50.90;;;;;;4992023;28;87262;-82
2022/02/14 03:26:29;;;;;;;2.97;1.88;;;21.00;51.00;;;;;;4991526;28;88774;-81
2022/02/14 03:28:56;;;;;;;2.90;1.90;;;21.00;51.00;;;;;;4992058;28;88934;-81
2022/02/14 03:31:22;;;;;;;2.13;1.70;;;20.90;50.90;;;;;;4992082;28;87723;-79
2022/02/14 03:33:49;;;;;;;2.28;1.75;;;20.90;51.00;;;;;;4990331;28;90108;-82
2022/02/14 03:36:17;;;;;;;2.80;1.95;;;20.90;50.70;;;;;;4990998;28;87499;-79
2022/02/14 03:38:44;;;;;;;2.72;1.70;;;20.90;50.90;;;;;;4994890;28;87771;-78
2022/02/14 03:41:10;;;;;;;2.08;1.70;;;20.90;51.20;;;;;;4991845;28;86988;-80
2022/02/14 03:43:36;;;;;;;3.10;2.17;;;20.90;51.00;;;;;;4992018;28;86737;-80
2022/02/14 03:46:02;;;;;;;2.75;1.90;;;20.90;51.00;;;;;;4991887;28;87070;-80
2022/02/14 03:48:27;;;;;;;2.20;2.00;;;21.00;51.30;;;;;;4991895;28;88063;-81
2022/02/14 03:50:54;;;;;;;2.30;2.10;;;20.90;51.60;;;;;;4991520;28;88003;-80
2022/02/14 03:53:20;;;;;;;2.95;2.13;;;20.90;51.80;;;;;;4989609;28;88015;-83
2022/02/14 03:55:46;;;;;;;2.47;2.28;;;20.90;51.80;;;;;;4991130;28;87973;-80
2022/02/14 03:58:12;;;;;;;3.05;2.10;;;20.90;52.00;;;;;;4990997;28;87443;-78
2022/02/14 04:00:39;;;;;;;3.60;2.28;;;20.90;51.80;;;;;;4989112;28;87491;-79
2022/02/14 04:03:04;;;;;;;4.28;1.95;;;20.90;51.70;;;;;;4988150;28;87724;-78
2022/02/14 04:05:47;;;;;;;3.47;2.33;;;20.90;51.60;;;;;;4988987;28;87883;-80
2022/02/14 04:08:13;;;;;;;3.92;2.03;;;20.90;51.70;;;;;;4987679;28;87282;-79
2022/02/14 04:10:39;;;;;;;4.65;2.30;;;20.90;51.70;;;;;;4990232;28;87374;-79
2022/02/14 04:13:05;;;;;;;3.75;1.80;;;20.90;51.70;;;;;;4990862;28;86974;-82
2022/02/14 04:15:31;;;;;;;4.57;1.98;;;20.90;51.50;;;;;;4990289;28;89998;-80
2022/02/14 04:17:57;;;;;;;3.25;2.40;;;20.90;51.60;;;;;;4989153;28;89500;-81
2022/02/14 04:20:23;;;;;;;3.20;1.70;;;20.90;51.50;;;;;;4987392;28;87065;-82
2022/02/14 04:22:49;;;;;;;2.45;2.00;;;20.90;51.70;;;;;;4989586;28;87187;-80
2022/02/14 04:25:16;;;;;;;2.67;1.90;;;20.90;51.60;;;;;;4988894;28;89756;-79
2022/02/14 04:27:42;;;;;;;3.30;2.08;;;20.90;51.60;;;;;;4989501;28;87815;-79
2022/02/14 04:30:10;;;;;;;2.90;2.10;;;20.90;51.70;;;;;;4989660;28;87737;-77
2022/02/14 04:32:36;;;;;;;2.80;2.10;;;20.90;51.50;;;;;;4988592;28;86682;-78
2022/02/14 04:35:03;;;;;;;3.10;2.15;;;20.90;51.60;;;;;;4988752;28;87958;-78
2022/02/14 04:37:28;;;;;;;3.65;2.20;;;20.80;51.60;;;;;;4989527;28;87376;-80
2022/02/14 04:39:54;;;;;;;1.85;1.67;;;20.90;51.70;;;;;;4986690;28;88922;-79
2022/02/14 04:42:27;;;;;;;3.35;2.17;;;20.80;51.70;;;;;;4990182;28;87865;-80
2022/02/14 04:44:53;;;;;;;2.97;2.15;;;20.90;51.80;;;;;;4985958;28;90746;-78
2022/02/14 04:47:18;;;;;;;2.42;1.90;;;20.80;51.70;;;;;;4989148;28;87848;-78
2022/02/14 04:49:44;;;;;;;2.45;1.95;;;20.80;51.80;;;;;;4988595;28;87010;-78
2022/02/14 04:52:10;;;;;;;3.53;2.00;;;20.80;51.70;;;;;;4988624;28;87079;-78
2022/02/14 04:54:35;;;;;;;1.80;1.70;;;20.80;51.70;;;;;;4990056;28;87937;-79
2022/02/14 04:57:01;;;;;;;2.53;1.70;;;20.80;51.80;;;;;;4990477;28;88301;-79
2022/02/14 04:59:27;;;;;;;2.05;1.80;;;20.80;51.80;;;;;;4990334;28;87527;-79
2022/02/14 05:01:52;;;;;;;2.30;1.80;;;20.80;51.80;;;;;;4988072;28;88727;-79
2022/02/14 05:04:18;;;;;;;1.73;1.63;;;20.80;51.70;;;;;;4988809;28;88901;-79
2022/02/14 05:06:43;;;;;;;3.35;1.55;;;20.80;51.70;;;;;;4990260;28;88356;-78
2022/02/14 05:09:09;;;;;;;2.25;1.80;;;20.80;51.60;;;;;;4989970;28;87220;-79
2022/02/14 05:11:35;;;;;;;3.20;1.90;;;20.80;51.60;;;;;;4989677;28;87914;-80
2022/02/14 05:14:00;;;;;;;3.08;1.67;;;20.80;51.70;;;;;;4988767;28;88014;-78
2022/02/14 05:16:26;;;;;;;3.90;2.00;;;20.80;51.70;;;;;;4990264;28;87462;-77
2022/02/14 05:18:53;;;;;;;2.80;1.70;;;20.80;51.50;;;;;;4990001;28;87625;-79
2022/02/14 05:21:19;;;;;;;2.95;2.05;;;20.80;51.60;;;;;;4987522;28;89370;-79
2022/02/14 05:23:45;;;;;;;2.10;1.73;;;20.80;51.50;;;;;;4989584;28;87062;-79
2022/02/14 05:26:11;;;;;;;2.17;1.60;;;20.80;52.20;;;;;;4990119;28;86969;-79
2022/02/14 05:28:36;;;;;;;2.08;1.73;;;20.80;51.50;;;;;;4989480;28;88304;-80
2022/02/14 05:31:02;;;;;;;2.05;1.80;;;20.80;51.50;;;;;;4990062;28;87609;-78
2022/02/14 05:33:35;;;;;;;2.53;1.80;;;20.70;51.50;;;;;;4989414;28;87564;-80
2022/02/14 05:36:01;;;;;;;3.13;1.90;;;20.70;51.50;;;;;;4989588;28;87255;-80
2022/02/14 05:38:26;;;;;;;2.05;1.73;;;20.70;51.30;;;;;;4988950;28;87697;-79
2022/02/14 05:40:52;;;;;;;1.90;1.70;;;20.70;51.30;;;;;;4988903;28;87947;-80
2022/02/14 05:43:18;;;;;;;2.67;1.83;;;20.70;51.30;;;;;;4988277;28;88305;-79
2022/02/14 05:45:43;;;;;;;2.55;1.80;;;20.70;51.20;;;;;;4992686;28;86989;-80
2022/02/14 05:48:09;;;;;;;1.88;1.60;;;20.70;51.20;;;;;;4992799;28;87791;-81
2022/02/14 05:50:35;;;;;;;1.77;1.60;;;20.70;51.20;;;;;;4992448;28;87682;-79
2022/02/14 05:53:01;;;;;;;2.95;1.80;;;20.70;51.20;;;;;;4991965;28;89663;-78
2022/02/14 05:55:26;;;;;;;2.33;1.80;;;20.70;51.10;;;;;;4992241;28;88349;-80
2022/02/14 05:57:52;;;;;;;2.20;1.60;;;20.70;51.00;;;;;;4992635;28;87526;-78
2022/02/14 06:00:19;;;;;;;2.10;1.83;;;20.70;51.10;;;;;;4990917;28;88073;-79
2022/02/14 06:02:45;;;;;;;2.03;1.73;;;20.70;50.80;;;;;;4990545;28;90443;-79
2022/02/14 06:05:11;;;;;;;1.92;1.65;;;20.70;51.10;;;;;;4990525;28;88477;-78
2022/02/14 06:07:36;;;;;;;4.15;1.90;;;20.70;51.00;;;;;;4992446;28;86930;-81
2022/02/14 06:10:02;;;;;;;2.00;1.80;;;20.70;50.90;;;;;;4992758;28;86559;-81
2022/02/14 06:12:28;;;;;;;2.30;1.70;;;20.70;50.80;;;;;;4991300;28;90090;-82
2022/02/14 06:14:54;;;;;;;2.70;1.88;;;20.60;50.70;;;;;;4992735;28;87835;-79
2022/02/14 06:17:19;;;;;;;2.10;1.58;;;20.70;50.90;;;;;;4992157;28;88356;-81
2022/02/14 06:19:45;;;;;;;1.80;1.40;;;20.70;50.90;;;;;;4991784;28;87372;-79
2022/02/14 06:22:19;;;;;;;3.15;1.67;;;20.70;50.80;;;;;;4992073;28;87745;-79
2022/02/14 06:24:44;;;;;;;1.92;1.73;;;20.70;50.90;;;;;;4991515;28;87541;-79
2022/02/14 06:27:10;;;;;;;2.20;1.70;;;20.70;50.80;;;;;;4991972;28;87520;-81
2022/02/14 06:29:35;;;;;;;2.47;1.60;;;20.60;50.80;;;;;;4991433;28;87883;-81
2022/02/14 06:32:02;;;;;;;1.70;1.50;;;20.60;50.90;;;;;;4990324;28;88273;-79
2022/02/14 06:34:27;;;;;;;1.77;1.50;;;20.60;50.80;;;;;;4989858;28;90749;-80
2022/02/14 06:36:53;;;;;;;1.88;1.52;;;20.60;50.70;;;;;;4991872;28;87462;-82
2022/02/14 06:39:18;;;;;;;2.38;1.70;;;20.60;50.70;;;;;;4992481;28;87859;-79
2022/02/14 06:41:46;;;;;;;1.50;1.40;;;20.60;50.80;;;;;;4991608;28;88638;-80
2022/02/14 06:44:12;;;;;;;2.33;1.77;;;20.60;50.90;;;;;;4991579;28;87865;-82
2022/02/14 06:46:38;;;;;;;2.15;1.48;;;20.60;50.70;;;;;;4991547;28;87677;-81
2022/02/14 06:49:06;;;;;;;2.10;1.50;;;20.60;50.70;;;;;;4990266;28;87597;-81
2022/02/14 06:51:35;;;;;;;1.95;1.70;;;20.60;50.90;;;;;;4992476;28;88107;-80
2022/02/14 06:54:01;;;;;;;1.95;1.42;;;20.60;50.70;;;;;;4990453;28;90101;-80
2022/02/14 06:56:26;;;;;;;1.60;1.48;;;20.60;50.70;;;;;;4991420;28;87579;-80
2022/02/14 06:58:52;;;;;;;2.95;1.60;;;20.60;50.70;;;;;;4992102;28;86333;-79
2022/02/14 07:01:17;;;;;;;2.78;1.58;;;20.60;50.40;;;;;;4991333;28;87517;-81
2022/02/14 07:03:43;;;;;;;5.90;1.90;;;20.60;50.60;;;;;;4991192;28;88466;-83
2022/02/14 07:06:09;;;;;;;2.30;1.60;;;20.60;50.60;;;;;;4988750;28;87980;-80
2022/02/14 07:08:34;;;;;;;2.85;1.70;;;20.60;50.60;;;;;;4990670;28;87766;-80
2022/02/14 07:11:03;;;;;;;3.03;1.60;;;20.60;50.60;;;;;;4990565;28;87889;-81
2022/02/14 07:13:31;;;;;;;2.67;1.50;;;20.70;50.60;;;;;;4989159;28;90068;-81
2022/02/14 07:15:57;;;;;;;1.40;1.17;;;20.70;50.70;;;;;;4990591;28;87709;-81
2022/02/14 07:18:25;;;;;;;2.50;1.70;;;20.70;50.40;;;;;;4991765;28;87560;-81
2022/02/14 07:20:51;;;;;;;2.47;1.60;;;20.70;50.40;;;;;;4990739;28;87623;-82
2022/02/14 07:23:16;;;;;;;4.43;1.75;;;20.70;50.40;;;;;;4990885;28;87506;-79
2022/02/14 07:25:42;;;;;;;4.47;1.98;;;20.70;50.60;;;;;;4991017;28;87832;-79
2022/02/14 07:28:08;;;;;;;3.60;1.50;;;20.70;50.10;;;;;;4989507;28;87808;-83
2022/02/14 07:30:33;;;;;;;4.45;1.92;;;20.70;50.20;;;;;;4990151;28;88790;-78
2022/02/14 07:32:59;;;;;;;6.70;2.00;;;20.70;50.50;;;;;;4994694;28;88205;-79
2022/02/14 07:35:25;;;;;;;3.13;1.83;;;20.70;50.90;;;;;;4991245;28;87259;-79
2022/02/14 07:37:51;;;;;;;5.22;2.78;;;20.70;51.50;;;;;;4989471;28;87222;-81
2022/02/14 07:40:17;;;;;;;4.75;2.30;;;20.70;51.90;;;;;;4990404;28;87824;-79
2022/02/14 07:42:44;;;;;;;3.75;2.00;;;20.80;51.90;;;;;;4990823;28;87308;-80
2022/02/14 07:45:11;;;;;;;7.57;2.88;;;20.70;50.60;;;;;;4989896;28;87449;-80
2022/02/14 07:47:37;;;;;;;10.25;3.00;;;20.80;51.10;;;;;;4990915;28;86932;-83
2022/02/14 07:50:06;;;;;;;4.45;2.47;;;20.80;51.30;;;;;;4990525;28;87200;-78
2022/02/14 07:52:36;;;;;;;8.07;2.97;;;20.90;51.60;;;;;;4991408;28;87286;-81
2022/02/14 07:55:03;;;;;;;7.50;2.77;;;20.90;51.70;;;;;;4988702;28;89073;-82
2022/02/14 07:57:32;;;;;;;9.13;3.20;;;20.90;51.80;;;;;;4983374;28;87456;-80
2022/02/14 07:59:59;;;;;;;8.50;2.35;;;21.00;51.70;;;;;;4990212;28;87873;-80
2022/02/14 08:02:25;;;;;;;10.00;2.92;;;21.00;51.50;;;;;;4991371;28;87742;-83
2022/02/14 08:04:50;;;;;;;7.78;2.80;;;21.00;51.40;;;;;;4991394;28;87007;-81
2022/02/14 08:07:16;;;;;;;6.00;3.03;;;21.00;51.60;;;;;;4987846;28;89296;-82
2022/02/14 08:09:42;;;;;;;8.93;3.30;;;21.00;52.30;;;;;;4937617;28;90700;-83
2022/02/14 08:12:09;;;;;;;10.00;3.88;;;21.00;52.90;;;;;;4993379;28;87176;-80
2022/02/14 08:14:36;;;;;;;10.25;4.32;;;21.00;53.50;;;;;;4990318;28;87851;-79
2022/02/14 08:17:03;;;;;;;12.70;4.45;;;21.00;54.20;;;;;;4990029;28;87481;-78
2022/02/14 08:19:28;;;;;;;11.73;4.38;;;21.10;55.10;;;;;;4989182;28;88870;-79
2022/02/14 08:21:54;;;;;;;9.98;4.78;;;21.10;55.10;;;;;;4988415;28;88457;-80
2022/02/14 08:24:19;;;;;;;17.08;6.82;;;21.10;55.60;;;;;;4991441;28;86975;-78
2022/02/14 08:26:46;;;;;;;12.57;6.22;;;21.10;56.70;;;;;;4990661;28;87884;-81
2022/02/14 08:29:12;;;;;;;10.35;5.03;;;21.10;57.10;;;;;;4990107;28;88244;-82
2022/02/14 08:31:41;;;;;;;12.65;5.20;;;21.10;56.20;;;;;;4989072;28;88027;-78
2022/02/14 08:34:07;;;;;;;15.00;5.73;;;21.00;56.40;;;;;;4989208;28;88003;-79
2022/02/14 08:36:44;;;;;;;12.68;4.82;;;21.10;57.60;;;;;;4989071;28;87276;-81
2022/02/14 08:39:10;;;;;;;10.30;3.90;;;21.00;56.50;;;;;;4988983;28;88049;-78
2022/02/14 08:41:36;;;;;;;11.35;3.83;;;21.10;56.20;;;;;;4989445;28;87630;-80
2022/02/14 08:44:02;;;;;;;33.70;7.18;;;21.10;56.20;;;;;;4988914;28;87851;-82
2022/02/14 08:46:28;;;;;;;19.00;6.03;;;21.10;56.30;;;;;;4989627;28;87388;-76
2022/02/14 08:48:54;;;;;;;18.10;5.40;;;21.10;55.50;;;;;;4988744;28;90613;-79
2022/02/14 08:51:21;;;;;;;21.80;5.38;;;21.10;55.70;;;;;;4990144;28;87771;-83
2022/02/14 08:53:48;;;;;;;29.52;6.85;;;21.10;55.70;;;;;;4991308;28;87360;-80
2022/02/14 08:56:14;;;;;;;22.55;6.18;;;21.10;55.60;;;;;;4991252;28;87562;-78
2022/02/14 08:58:40;;;;;;;29.80;7.72;;;21.10;55.50;;;;;;4990539;28;88015;-81
2022/02/14 09:01:06;;;;;;;25.48;6.05;;;21.10;55.70;;;;;;4992619;28;87244;-80
2022/02/14 09:03:33;;;;;;;31.30;8.98;;;21.10;55.70;;;;;;4990010;28;87643;-79
2022/02/14 09:05:58;;;;;;;26.70;7.32;;;21.10;55.90;;;;;;4985132;28;89566;-80
2022/02/14 09:08:25;;;;;;;27.00;8.23;;;21.10;55.90;;;;;;4989073;28;88974;-80
2022/02/14 09:10:52;;;;;;;32.00;8.80;;;21.10;56.00;;;;;;4989657;28;88595;-79
2022/02/14 09:13:18;;;;;;;24.05;7.15;;;21.10;56.10;;;;;;4988483;28;86978;-79
2022/02/14 09:15:51;;;;;;;23.52;6.90;;;21.10;55.90;;;;;;4988746;28;88706;-79
2022/02/14 09:18:16;;;;;;;30.15;8.18;;;21.10;55.90;;;;;;4989001;28;88048;-80
2022/02/14 09:20:42;;;;;;;23.75;7.25;;;21.10;55.70;;;;;;4988894;28;87954;-79
2022/02/14 09:23:08;;;;;;;18.83;7.20;;;21.10;55.60;;;;;;4988956;28;87269;-79
2022/02/14 09:25:34;;;;;;;31.55;8.48;;;21.10;56.10;;;;;;4989318;28;86794;-79
2022/02/14 09:28:01;;;;;;;28.77;8.68;;;21.10;56.40;;;;;;4988513;28;87349;-79
2022/02/14 09:30:27;;;;;;;32.72;9.23;;;21.10;55.70;;;;;;4992098;28;88694;-78
2022/02/14 09:32:52;;;;;;;26.95;8.18;;;21.10;55.80;;;;;;4989297;28;87909;-77
2022/02/14 09:35:26;;;;;;;31.90;8.13;;;21.10;55.90;;;;;;4989254;28;87770;-80
2022/02/14 09:37:56;;;;;;;22.27;7.05;;;21.10;55.90;;;;;;4988362;28;88169;-82
2022/02/14 09:40:23;;;;;;;25.00;7.38;;;21.10;56.30;;;;;;4988514;28;87247;-79
2022/02/14 09:42:49;;;;;;;22.55;7.82;;;21.10;56.30;;;;;;4989437;28;87526;-78
2022/02/14 09:45:14;;;;;;;23.58;7.95;;;21.10;56.50;;;;;;4990147;28;87239;-78
2022/02/14 09:47:43;;;;;;;27.67;7.25;;;21.10;56.80;;;;;;4989996;28;88907;-78
2022/02/14 09:50:27;;;;;;;24.17;8.03;;;21.10;57.10;;;;;;4992371;28;87034;-78
2022/02/14 09:52:53;;;;;;;24.05;7.82;;;21.10;57.30;;;;;;4988769;28;87617;-79
2022/02/14 09:55:19;;;;;;;21.23;7.03;;;21.10;57.00;;;;;;4988997;28;87637;-78
2022/02/14 09:57:46;;;;;;;23.88;7.95;;;21.10;57.00;;;;;;4988329;28;89830;-79
2022/02/14 10:00:12;;;;;;;20.08;7.03;;;21.10;57.20;;;;;;4988330;28;88744;-78
2022/02/14 10:02:38;;;;;;;22.25;7.28;;;21.20;57.30;;;;;;4988407;28;88014;-79
2022/02/14 10:05:06;;;;;;;20.85;7.22;;;21.10;57.20;;;;;;4989055;28;87639;-78
2022/02/14 10:07:46;;;;;;;21.10;7.17;;;21.20;57.30;;;;;;4987732;28;88690;-78
2022/02/14 10:10:33;;;;;;;21.02;7.15;;;21.20;57.50;;;;;;4988150;28;87173;-78
2022/02/14 10:12:59;;;;;;;16.83;7.13;;;21.20;57.70;;;;;;4988708;28;87754;-78
2022/02/14 10:15:26;;;;;;;24.33;7.75;;;21.20;58.00;;;;;;4989575;28;86563;-78
2022/02/14 10:17:59;;;;;;;20.02;7.55;;;21.20;57.40;;;;;;4989364;28;90481;-78
2022/02/14 10:20:26;;;;;;;24.48;8.05;;;21.20;57.50;;;;;;4986757;28;87910;-79
2022/02/14 10:22:58;;;;;;;21.08;7.95;;;21.20;58.10;;;;;;4985988;28;88090;-78
2022/02/14 10:26:04;;;;;;;17.95;7.05;;;21.20;58.30;;;;;;4988147;28;87331;-78
2022/02/14 10:28:30;;;;;;;20.38;7.70;;;21.20;58.40;;;;;;5001586;28;91001;-80
2022/02/14 10:31:03;;;;;;;24.95;8.05;;;21.20;58.50;;;;;;4990537;28;88489;-78
2022/02/14 10:33:47;;;;;;;17.30;7.25;;;21.20;58.90;;;;;;4992536;28;86934;-78
2022/02/14 10:36:33;;;;;;;18.42;7.10;;;21.20;59.50;;;;;;4989609;28;89184;-79
2022/02/14 10:39:16;;;;;;;20.17;8.43;;;21.20;59.60;;;;;;4989008;28;90788;-79
2022/02/14 10:41:44;;;;;;;22.17;8.40;;;21.20;59.80;;;;;;4990846;28;87497;-79
2022/02/14 10:44:13;;;;;;;22.60;8.27;;;21.20;59.90;;;;;;4991617;28;86987;-80
2022/02/14 10:46:40;;;;;;;20.98;8.70;;;21.10;60.20;;;;;;4991705;28;87611;-79
2022/02/14 10:49:06;;;;;;;20.38;7.88;;;21.20;60.00;;;;;;4991348;28;90167;-79
2022/02/14 10:51:34;;;;;;;18.52;7.10;;;21.10;59.70;;;;;;4990296;28;91839;-79
2022/02/14 10:54:01;;;;;;;20.05;7.60;;;21.20;58.20;;;;;;4991048;28;87353;-81
2022/02/14 10:56:27;;;;;;;19.10;7.47;;;21.20;58.50;;;;;;4987951;28;88247;-79
2022/02/14 10:59:10;;;;;;;21.95;8.30;;;21.20;58.20;;;;;;4989949;28;88099;-83
2022/02/14 11:01:38;;;;;;;20.65;7.78;;;21.20;59.00;;;;;;4988045;28;90086;-80
2022/02/14 11:04:03;;;;;;;21.50;8.02;;;21.20;59.20;;;;;;5038110;22;88172;-86
2022/02/14 11:06:34;;;;;;;21.58;8.15;;;21.20;59.20;;;;;;5010638;28;89709;-86
2022/02/14 11:09:02;;;;;;;19.70;7.75;;;21.20;59.40;;;;;;5009639;28;87879;-85
2022/02/14 11:11:28;;;;;;;20.52;7.55;;;21.20;59.50;;;;;;5011716;28;87775;-85
2022/02/14 11:13:58;;;;;;;18.88;7.50;;;21.20;59.50;;;;;;5012091;28;88683;-86
2022/02/14 11:16:27;;;;;;;21.73;7.80;;;21.20;59.50;;;;;;5011994;28;87694;-85
2022/02/14 11:18:56;;;;;;;21.38;8.07;;;21.20;59.40;;;;;;5012408;28;88167;-84
2022/02/14 11:21:23;;;;;;;;;;;21.10;59.30;;;;;;5027357;28;89324;-86
2022/02/14 11:23:56;;;;;;;20.30;8.00;;;21.10;59.30;;;;;;5013004;28;86933;-85
2022/02/14 11:26:45;;;;;;;18.58;7.10;;;21.20;59.00;;;;;;5009558;28;89897;-85
2022/02/14 11:29:25;;;;;;;24.83;6.82;;;21.20;59.20;;;;;;5011188;28;87877;-84
2022/02/14 11:32:14;;;;;;;20.08;7.30;;;21.20;59.60;;;;;;5010497;28;89587;-84
2022/02/14 11:35:01;;;;;;;15.77;6.70;;;21.20;58.80;;;;;;5012049;28;87435;-86
2022/02/14 11:37:46;;;;;;;17.15;6.70;;;21.20;58.70;;;;;;5011643;28;87504;-83
2022/02/14 11:40:49;;;;;;;17.05;6.72;;;21.20;58.70;;;;;;5025907;28;90086;-86
2022/02/14 11:43:24;;;;;;;17.58;6.50;;;21.20;58.50;;;;;;5009005;28;87293;-84
2022/02/14 11:46:08;;;;;;;18.08;7.75;;;21.20;58.50;;;;;;5011751;28;87037;-85
2022/02/14 11:48:34;;;;;;;19.85;7.38;;;21.20;58.30;;;;;;5011943;28;87080;-84
2022/02/14 11:51:11;;;;;;;17.98;6.50;;;21.20;58.10;;;;;;5011277;28;87896;-85
2022/02/14 11:53:41;;;;;;;19.35;7.13;;;21.20;58.20;;;;;;5011300;28;87972;-86
2022/02/14 11:56:22;;;;;;;15.95;6.18;;;21.20;58.20;;;;;;5011814;28;87898;-83
2022/02/14 11:59:16;;;;;;;16.27;6.78;;;21.20;58.20;;;;;;5009950;28;89963;-86
2022/02/14 12:01:51;;;;;;;15.57;6.85;;;21.20;58.10;;;;;;5011036;28;88038;-85
2022/02/14 12:04:46;;;;;;;17.52;6.60;;;21.20;58.20;;;;;;5010990;28;87572;-85
2022/02/14 12:07:29;;;;;;;16.65;6.80;;;21.20;57.80;;;;;;4988131;28;88836;-85
2022/02/14 12:10:00;;;;;;;14.10;6.90;;;21.20;57.60;;;;;;5010924;28;87248;-85
2022/02/14 12:12:54;;;;;;;15.43;6.75;;;21.30;58.00;;;;;;5009670;28;90387;-85
2022/02/14 12:21:01;;;;;;;13.48;5.88;;;21.20;57.50;;;;;;5010710;28;88042;-84
2022/02/14 12:23:30;;;;;;;16.90;6.30;;;21.20;57.30;;;;;;5010598;28;88373;-85
2022/02/14 12:25:56;;;;;;;;;;;21.30;58.00;;;;;;5011676;28;87706;-85
2022/02/14 12:28:23;;;;;;;13.57;6.25;;;21.30;57.30;;;;;;5012972;28;88091;-85
2022/02/14 12:30:49;;;;;;;16.98;6.65;;;21.30;57.30;;;;;;5008734;28;87592;-86
2022/02/14 12:33:16;;;;;;;16.58;6.70;;;21.30;57.30;;;;;;5010497;28;88974;-83
2022/02/14 12:35:44;;;;;;;13.93;6.13;;;21.20;57.20;;;;;;5010635;28;88275;-84
2022/02/14 12:38:10;;;;;;;14.70;5.60;;;21.20;56.90;;;;;;5010974;28;87089;-86
2022/02/14 12:40:56;;;;;;;14.80;6.13;;;21.20;56.80;;;;;;5009642;28;87740;-86
2022/02/14 12:43:29;;;;;;;13.77;6.57;;;21.20;56.80;;;;;;5009488;28;88383;-84
2022/02/14 12:46:00;;;;;;;15.05;6.07;;;21.20;56.90;;;;;;5009173;28;87620;-85
2022/02/14 12:48:40;;;;;;;15.27;5.80;;;21.30;57.10;;;;;;5009076;28;87819;-85
2022/02/14 12:51:08;;;;;;;;;;;21.30;57.00;;;;;;5009016;28;87177;-86
2022/02/14 12:53:35;;;;;;;15.35;5.75;;;21.20;57.60;;;;;;5009893;28;89037;-86
2022/02/14 12:56:19;;;;;;;12.18;5.65;;;21.20;56.80;;;;;;5008096;28;87734;-85